sensor_id;sensor_type;location;lat;lon;timestamp;pressure;altitude;pressure_sealevel;temperature;humidity
77590;BME280;66746;51.328;12.332;2024-01-16T00:01:00;99111.44;;;0.59;100.00
77590;BME280;66746;51.328;12.332;2024-01-16T00:03:26;99098.19;;;0.56;100.00
77590;BME280;66746;51.328;12.332;2024-01-16T00:05:53;99115.91;;;0.57;100.00
77590;BME280;66746;51.328;12.332;2024-01-16T00:08:19;99114.22;;;0.55;100.00
77590;BME280;66746;51.328;12.332;2024-01-16T00:10:46;99118.63;;;0.56;100.00
77590;BME280;66746;51.328;12.332;2024-01-16T00:13:13;99119.50;;;0.56;100.00
77590;BME280;66746;51.328;12.332;2024-01-16T00:15:40;99124.84;;;0.56;100.00
77590;BME280;66746;51.328;12.332;2024-01-16T00:18:07;99123.94;;;0.56;100.00
77590;BME280;66746;51.328;12.332;2024-01-16T00:20:34;99139.03;;;0.58;100.00
77590;BME280;66746;51.328;12.332;2024-01-16T00:23:01;99132.78;;;0.59;100.00
77590;BME280;66746;51.328;12.332;2024-01-16T00:25:28;99137.22;;;0.60;100.00
77590;BME280;66746;51.328;12.332;2024-01-16T00:27:54;99139.88;;;0.59;100.00
77590;BME280;66746;51.328;12.332;2024-01-16T00:30:21;99141.63;;;0.61;100.00
77590;BME280;66746;51.328;12.332;2024-01-16T00:32:48;99146.94;;;0.63;100.00
77590;BME280;66746;51.328;12.332;2024-01-16T00:35:16;99140.75;;;0.62;100.00
77590;BME280;66746;51.328;12.332;2024-01-16T00:37:42;99143.38;;;0.64;100.00
77590;BME280;66746;51.328;12.332;2024-01-16T00:40:09;99158.44;;;0.66;100.00
77590;BME280;66746;51.328;12.332;2024-01-16T00:42:36;99160.19;;;0.67;100.00
77590;BME280;66746;51.328;12.332;2024-01-16T00:45:03;99161.97;;;0.68;100.00
77590;BME280;66746;51.328;12.332;2024-01-16T00:47:30;99164.63;;;0.68;100.00
77590;BME280;66746;51.328;12.332;2024-01-16T00:49:56;99165.53;;;0.67;100.00
77590;BME280;66746;51.328;12.332;2024-01-16T00:52:24;99167.28;;;0.70;100.00
77590;BME280;66746;51.328;12.332;2024-01-16T00:54:50;99172.63;;;0.68;100.00
77590;BME280;66746;51.328;12.332;2024-01-16T00:57:17;99169.06;;;0.69;100.00
77590;BME280;66746;51.328;12.332;2024-01-16T00:59:43;99156.66;;;0.65;100.00
77590;BME280;66746;51.328;12.332;2024-01-16T01:02:10;99169.00;;;0.71;100.00
77590;BME280;66746;51.328;12.332;2024-01-16T01:04:37;99169.88;;;0.73;100.00
77590;BME280;66746;51.328;12.332;2024-01-16T01:07:04;99185.84;;;0.74;100.00
77590;BME280;66746;51.328;12.332;2024-01-16T01:09:33;99185.03;;;0.72;100.00
77590;BME280;66746;51.328;12.332;2024-01-16T01:12:00;99181.44;;;0.73;100.00
77590;BME280;66746;51.328;12.332;2024-01-16T01:14:26;99185.03;;;0.72;100.00
77590;BME280;66746;51.328;12.332;2024-01-16T01:16:53;99189.47;;;0.72;100.00
77590;BME280;66746;51.328;12.332;2024-01-16T01:19:19;99193.84;;;0.74;100.00
77590;BME280;66746;51.328;12.332;2024-01-16T01:21:46;99196.50;;;0.74;100.00
77590;BME280;66746;51.328;12.332;2024-01-16T01:24:12;99202.84;;;0.70;100.00
77590;BME280;66746;51.328;12.332;2024-01-16T01:26:43;99197.44;;;0.73;100.00
77590;BME280;66746;51.328;12.332;2024-01-16T01:29:10;99196.47;;;0.77;99.28
77590;BME280;66746;51.328;12.332;2024-01-16T01:31:36;99200.91;;;0.77;100.00
77590;BME280;66746;51.328;12.332;2024-01-16T01:34:03;99202.66;;;0.79;100.00
77590;BME280;66746;51.328;12.332;2024-01-16T01:36:29;99209.75;;;0.80;99.40
77590;BME280;66746;51.328;12.332;2024-01-16T01:38:56;99200.97;;;0.75;99.88
77590;BME280;66746;51.328;12.332;2024-01-16T01:41:23;99209.78;;;0.79;100.00
77590;BME280;66746;51.328;12.332;2024-01-16T01:43:51;99210.63;;;0.81;99.72
77590;BME280;66746;51.328;12.332;2024-01-16T01:46:18;99214.31;;;0.74;99.08
77590;BME280;66746;51.328;12.332;2024-01-16T01:48:46;99224.78;;;0.84;97.94
77590;BME280;66746;51.328;12.332;2024-01-16T01:51:14;99222.19;;;0.81;99.12
77590;BME280;66746;51.328;12.332;2024-01-16T01:53:44;99216.91;;;0.78;98.10
77590;BME280;66746;51.328;12.332;2024-01-16T01:56:14;99236.41;;;0.83;96.90
77590;BME280;66746;51.328;12.332;2024-01-16T01:58:43;99222.19;;;0.81;98.17
77590;BME280;66746;51.328;12.332;2024-01-16T02:01:13;99245.25;;;0.85;98.65
77590;BME280;66746;51.328;12.332;2024-01-16T02:03:42;99247.88;;;0.87;98.78
77590;BME280;66746;51.328;12.332;2024-01-16T02:06:10;99247.03;;;0.85;99.39
77590;BME280;66746;51.328;12.332;2024-01-16T02:08:37;99249.66;;;0.86;99.67
77590;BME280;66746;51.328;12.332;2024-01-16T02:11:04;99256.75;;;0.89;99.81
77590;BME280;66746;51.328;12.332;2024-01-16T02:13:30;99265.72;;;0.85;98.65
77590;BME280;66746;51.328;12.332;2024-01-16T02:15:57;99254.16;;;0.84;99.91
77590;BME280;66746;51.328;12.332;2024-01-16T02:18:25;99264.81;;;0.84;98.69
77590;BME280;66746;51.328;12.332;2024-01-16T02:20:51;99269.34;;;0.81;98.95
77590;BME280;66746;51.328;12.332;2024-01-16T02:23:24;99258.63;;;0.82;99.90
77590;BME280;66746;51.328;12.332;2024-01-16T02:25:53;99261.28;;;0.82;99.93
77590;BME280;66746;51.328;12.332;2024-01-16T02:28:19;99279.94;;;0.85;99.91
77590;BME280;66746;51.328;12.332;2024-01-16T02:30:46;99276.38;;;0.85;99.25
77590;BME280;66746;51.328;12.332;2024-01-16T02:33:12;99279.06;;;0.85;99.45
77590;BME280;66746;51.328;12.332;2024-01-16T02:35:39;99287.88;;;0.88;99.37
77590;BME280;66746;51.328;12.332;2024-01-16T02:38:05;99295.03;;;0.86;98.91
77590;BME280;66746;51.328;12.332;2024-01-16T02:40:33;99293.28;;;0.85;99.14
77590;BME280;66746;51.328;12.332;2024-01-16T02:43:00;99283.53;;;0.83;100.00
77590;BME280;66746;51.328;12.332;2024-01-16T02:45:26;99293.31;;;0.82;98.48
77590;BME280;66746;51.328;12.332;2024-01-16T02:47:53;99295.13;;;0.80;98.64
77590;BME280;66746;51.328;12.332;2024-01-16T02:50:20;99284.50;;;0.77;100.00
77590;BME280;66746;51.328;12.332;2024-01-16T02:52:46;99297.81;;;0.79;100.00
77590;BME280;66746;51.328;12.332;2024-01-16T02:55:13;99301.41;;;0.76;98.52
77590;BME280;66746;51.328;12.332;2024-01-16T02:57:41;99297.91;;;0.73;97.98
77590;BME280;66746;51.328;12.332;2024-01-16T03:00:08;99309.41;;;0.76;97.99
77590;BME280;66746;51.328;12.332;2024-01-16T03:02:34;99310.31;;;0.77;99.07
77590;BME280;66746;51.328;12.332;2024-01-16T03:05:02;99306.78;;;0.75;98.40
77590;BME280;66746;51.328;12.332;2024-01-16T03:07:29;99313.06;;;0.72;97.46
77590;BME280;66746;51.328;12.332;2024-01-16T03:09:56;99315.72;;;0.72;98.33
77590;BME280;66746;51.328;12.332;2024-01-16T03:12:23;99312.22;;;0.70;97.83
77590;BME280;66746;51.328;12.332;2024-01-16T03:14:51;99304.28;;;0.64;98.54
77590;BME280;66746;51.328;12.332;2024-01-16T03:17:17;99315.75;;;0.69;98.90
77590;BME280;66746;51.328;12.332;2024-01-16T03:19:44;99316.63;;;0.71;99.86
77590;BME280;66746;51.328;12.332;2024-01-16T03:22:10;99327.34;;;0.68;98.04
77590;BME280;66746;51.328;12.332;2024-01-16T03:24:37;99339.78;;;0.68;98.90
77590;BME280;66746;51.328;12.332;2024-01-16T03:27:04;99329.16;;;0.66;98.75
77590;BME280;66746;51.328;12.332;2024-01-16T03:29:30;99335.34;;;0.68;97.66
77590;BME280;66746;51.328;12.332;2024-01-16T03:31:58;99339.75;;;0.69;97.19
77590;BME280;66746;51.328;12.332;2024-01-16T03:34:25;99339.75;;;0.69;98.35
77590;BME280;66746;51.328;12.332;2024-01-16T03:36:51;99339.75;;;0.69;98.08
77590;BME280;66746;51.328;12.332;2024-01-16T03:39:18;99328.34;;;0.60;97.95
77590;BME280;66746;51.328;12.332;2024-01-16T03:41:44;99347.84;;;0.63;97.63
77590;BME280;66746;51.328;12.332;2024-01-16T03:44:11;99334.56;;;0.59;97.74
77590;BME280;66746;51.328;12.332;2024-01-16T03:46:37;99340.78;;;0.61;98.81
77590;BME280;66746;51.328;12.332;2024-01-16T03:49:05;99348.81;;;0.59;97.97
77590;BME280;66746;51.328;12.332;2024-01-16T03:51:32;99355.91;;;0.60;98.09
77590;BME280;66746;51.328;12.332;2024-01-16T03:53:58;99357.72;;;0.58;98.14
77590;BME280;66746;51.328;12.332;2024-01-16T03:56:26;99352.31;;;0.61;98.25
77590;BME280;66746;51.328;12.332;2024-01-16T03:58:53;99355.91;;;0.59;97.51
77590;BME280;66746;51.328;12.332;2024-01-16T04:01:29;99354.19;;;0.56;96.38
77590;BME280;66746;51.328;12.332;2024-01-16T04:03:56;99363.91;;;0.59;98.62
77590;BME280;66746;51.328;12.332;2024-01-16T04:06:24;99366.66;;;0.54;96.86
77590;BME280;66746;51.328;12.332;2024-01-16T04:08:50;99363.13;;;0.52;97.12
77590;BME280;66746;51.328;12.332;2024-01-16T04:11:17;99366.66;;;0.54;97.56
77590;BME280;66746;51.328;12.332;2024-01-16T04:13:44;99375.59;;;0.50;96.97
77590;BME280;66746;51.328;12.332;2024-01-16T04:16:12;99375.56;;;0.53;99.62
77590;BME280;66746;51.328;12.332;2024-01-16T04:18:40;99379.16;;;0.51;97.64
77590;BME280;66746;51.328;12.332;2024-01-16T04:21:06;99382.75;;;0.48;98.91
77590;BME280;66746;51.328;12.332;2024-01-16T04:23:34;99384.50;;;0.51;99.31
77590;BME280;66746;51.328;12.332;2024-01-16T04:26:01;99391.56;;;0.53;100.00
77590;BME280;66746;51.328;12.332;2024-01-16T04:28:27;99386.31;;;0.49;100.00
77590;BME280;66746;51.328;12.332;2024-01-16T04:30:54;99387.19;;;0.48;100.00
77590;BME280;66746;51.328;12.332;2024-01-16T04:33:21;99393.34;;;0.51;100.00
77590;BME280;66746;51.328;12.332;2024-01-16T04:35:48;99399.59;;;0.52;100.00
77590;BME280;66746;51.328;12.332;2024-01-16T04:38:15;99399.63;;;0.49;100.00
77590;BME280;66746;51.328;12.332;2024-01-16T04:40:43;99401.38;;;0.50;100.00
77590;BME280;66746;51.328;12.332;2024-01-16T04:43:09;99400.50;;;0.49;100.00
77590;BME280;66746;51.328;12.332;2024-01-16T04:45:41;99399.66;;;0.46;100.00
77590;BME280;66746;51.328;12.332;2024-01-16T04:48:07;99413.81;;;0.52;100.00
77590;BME280;66746;51.328;12.332;2024-01-16T04:50:34;99414.69;;;0.53;100.00
77590;BME280;66746;51.328;12.332;2024-01-16T04:53:01;99425.34;;;0.54;100.00
77590;BME280;66746;51.328;12.332;2024-01-16T04:55:28;99412.03;;;0.51;100.00
77590;BME280;66746;51.328;12.332;2024-01-16T04:57:56;99420.03;;;0.51;100.00
77590;BME280;66746;51.328;12.332;2024-01-16T05:00:23;99420.09;;;0.45;100.00
77590;BME280;66746;51.328;12.332;2024-01-16T05:02:49;99423.63;;;0.47;100.00
77590;BME280;66746;51.328;12.332;2024-01-16T05:05:16;99414.75;;;0.48;100.00
77590;BME280;66746;51.328;12.332;2024-01-16T05:07:43;99412.09;;;0.45;100.00
77590;BME280;66746;51.328;12.332;2024-01-16T05:10:10;99420.09;;;0.45;100.00
77590;BME280;66746;51.328;12.332;2024-01-16T05:12:37;99411.22;;;0.43;100.00
77590;BME280;66746;51.328;12.332;2024-01-16T05:15:06;99414.81;;;0.42;100.00
77590;BME280;66746;51.328;12.332;2024-01-16T05:17:33;99424.59;;;0.42;100.00
77590;BME280;66746;51.328;12.332;2024-01-16T05:20:01;99418.41;;;0.38;100.00
77590;BME280;66746;51.328;12.332;2024-01-16T05:22:27;99425.59;;;0.33;100.00
77590;BME280;66746;51.328;12.332;2024-01-16T05:24:54;99420.34;;;0.27;100.00
77590;BME280;66746;51.328;12.332;2024-01-16T05:27:20;99426.50;;;0.32;100.00
77590;BME280;66746;51.328;12.332;2024-01-16T05:29:49;99420.28;;;0.30;100.00
77590;BME280;66746;51.328;12.332;2024-01-16T05:32:17;99431.88;;;0.29;100.00
77590;BME280;66746;51.328;12.332;2024-01-16T05:34:43;99429.22;;;0.26;100.00
77590;BME280;66746;51.328;12.332;2024-01-16T05:37:10;99428.34;;;0.26;100.00
77590;BME280;66746;51.328;12.332;2024-01-16T05:39:37;99440.84;;;0.21;100.00
77590;BME280;66746;51.328;12.332;2024-01-16T05:42:04;99433.84;;;0.14;100.00
77590;BME280;66746;51.328;12.332;2024-01-16T05:44:31;99439.16;;;0.14;100.00
77590;BME280;66746;51.328;12.332;2024-01-16T05:46:57;99429.47;;;0.05;100.00
77590;BME280;66746;51.328;12.332;2024-01-16T05:49:25;99445.41;;;0.10;100.00
77590;BME280;66746;51.328;12.332;2024-01-16T05:51:52;99446.34;;;0.06;100.00
77590;BME280;66746;51.328;12.332;2024-01-16T05:54:21;99452.53;;;0.06;100.00
77590;BME280;66746;51.328;12.332;2024-01-16T05:56:48;99456.13;;;0.05;100.00
77590;BME280;66746;51.328;12.332;2024-01-16T05:59:15;99467.66;;;0.06;100.00
77590;BME280;66746;51.328;12.332;2024-01-16T06:01:41;99458.03;;;-0.06;100.00
77590;BME280;66746;51.328;12.332;2024-01-16T06:04:08;99469.56;;;-0.07;100.00
77590;BME280;66746;51.328;12.332;2024-01-16T06:06:38;99477.66;;;-0.16;100.00
77590;BME280;66746;51.328;12.332;2024-01-16T06:09:09;99476.84;;;-0.26;100.00
77590;BME280;66746;51.328;12.332;2024-01-16T06:11:36;99479.59;;;-0.36;100.00
77590;BME280;66746;51.328;12.332;2024-01-16T06:14:02;99483.16;;;-0.39;100.00
77590;BME280;66746;51.328;12.332;2024-01-16T06:16:29;99497.31;;;-0.35;100.00
77590;BME280;66746;51.328;12.332;2024-01-16T06:18:55;99481.44;;;-0.44;100.00
77590;BME280;66746;51.328;12.332;2024-01-16T06:21:22;99492.09;;;-0.44;100.00
77590;BME280;66746;51.328;12.332;2024-01-16T06:23:51;99492.09;;;-0.44;100.00
77590;BME280;66746;51.328;12.332;2024-01-16T06:26:18;99493.84;;;-0.42;100.00
77590;BME280;66746;51.328;12.332;2024-01-16T06:28:44;99495.63;;;-0.42;100.00
77590;BME280;66746;51.328;12.332;2024-01-16T06:31:11;99507.13;;;-0.39;100.00
77590;BME280;66746;51.328;12.332;2024-01-16T06:33:38;99508.94;;;-0.39;100.00
77590;BME280;66746;51.328;12.332;2024-01-16T06:36:06;99508.88;;;-0.36;100.00
77590;BME280;66746;51.328;12.332;2024-01-16T06:38:32;99509.78;;;-0.37;100.00
77590;BME280;66746;51.328;12.332;2024-01-16T06:41:00;99508.94;;;-0.39;100.00
77590;BME280;66746;51.328;12.332;2024-01-16T06:43:29;99517.75;;;-0.34;100.00
77590;BME280;66746;51.328;12.332;2024-01-16T06:45:55;99505.38;;;-0.43;99.96
77590;BME280;66746;51.328;12.332;2024-01-16T06:48:22;99514.28;;;-0.47;100.00
77590;BME280;66746;51.328;12.332;2024-01-16T06:50:49;99517.00;;;-0.51;100.00
77590;BME280;66746;51.328;12.332;2024-01-16T06:53:15;99520.56;;;-0.55;100.00
77590;BME280;66746;51.328;12.332;2024-01-16T06:55:43;99516.19;;;-0.64;100.00
77590;BME280;66746;51.328;12.332;2024-01-16T06:58:10;99522.41;;;-0.63;100.00
77590;BME280;66746;51.328;12.332;2024-01-16T07:00:37;99525.94;;;-0.61;100.00
77590;BME280;66746;51.328;12.332;2024-01-16T07:03:03;99526.81;;;-0.59;100.00
77590;BME280;66746;51.328;12.332;2024-01-16T07:05:30;99525.03;;;-0.59;100.00
77590;BME280;66746;51.328;12.332;2024-01-16T07:07:57;99532.13;;;-0.59;100.00
77590;BME280;66746;51.328;12.332;2024-01-16T07:10:23;99524.16;;;-0.62;100.00
77590;BME280;66746;51.328;12.332;2024-01-16T07:12:50;99527.69;;;-0.60;100.00
77590;BME280;66746;51.328;12.332;2024-01-16T07:15:18;99532.19;;;-0.70;100.00
77590;BME280;66746;51.328;12.332;2024-01-16T07:17:45;99527.75;;;-0.72;100.00
77590;BME280;66746;51.328;12.332;2024-01-16T07:20:12;99533.97;;;-0.72;100.00
77590;BME280;66746;51.328;12.332;2024-01-16T07:22:39;99535.75;;;-0.74;100.00
77590;BME280;66746;51.328;12.332;2024-01-16T07:25:06;99538.44;;;-0.75;100.00
77590;BME280;66746;51.328;12.332;2024-01-16T07:27:32;99543.72;;;-0.72;100.00
77590;BME280;66746;51.328;12.332;2024-01-16T07:29:59;99541.97;;;-0.73;100.00
77590;BME280;66746;51.328;12.332;2024-01-16T07:32:27;99546.41;;;-0.74;100.00
77590;BME280;66746;51.328;12.332;2024-01-16T07:34:56;99552.66;;;-0.76;100.00
77590;BME280;66746;51.328;12.332;2024-01-16T07:37:24;99557.03;;;-0.72;100.00
77590;BME280;66746;51.328;12.332;2024-01-16T07:39:50;99562.38;;;-0.74;100.00
77590;BME280;66746;51.328;12.332;2024-01-16T07:42:17;99552.59;;;-0.67;100.00
77590;BME280;66746;51.328;12.332;2024-01-16T07:44:43;99550.81;;;-0.68;100.00
77590;BME280;66746;51.328;12.332;2024-01-16T07:47:10;99559.66;;;-0.66;100.00
77590;BME280;66746;51.328;12.332;2024-01-16T07:49:38;99554.38;;;-0.69;100.00
77590;BME280;66746;51.328;12.332;2024-01-16T07:52:05;99562.34;;;-0.68;100.00
77590;BME280;66746;51.328;12.332;2024-01-16T07:54:34;99567.63;;;-0.59;100.00
77590;BME280;66746;51.328;12.332;2024-01-16T07:57:00;99576.47;;;-0.54;100.00
77590;BME280;66746;51.328;12.332;2024-01-16T07:59:27;99575.53;;;-0.48;100.00
77590;BME280;66746;51.328;12.332;2024-01-16T08:01:54;99586.19;;;-0.45;100.00
77590;BME280;66746;51.328;12.332;2024-01-16T08:04:20;99589.69;;;-0.40;100.00
77590;BME280;66746;51.328;12.332;2024-01-16T08:06:49;99586.13;;;-0.36;100.00
77590;BME280;66746;51.328;12.332;2024-01-16T08:09:16;99595.81;;;-0.29;100.00
77590;BME280;66746;51.328;12.332;2024-01-16T08:11:43;99594.00;;;-0.23;100.00
77590;BME280;66746;51.328;12.332;2024-01-16T08:14:09;99590.44;;;-0.20;100.00
77590;BME280;66746;51.328;12.332;2024-01-16T08:16:36;99597.53;;;-0.16;100.00
77590;BME280;66746;51.328;12.332;2024-01-16T08:19:03;99588.59;;;-0.14;100.00
77590;BME280;66746;51.328;12.332;2024-01-16T08:21:30;99593.94;;;-0.14;100.00
77590;BME280;66746;51.328;12.332;2024-01-16T08:23:57;99593.03;;;-0.08;100.00
77590;BME280;66746;51.328;12.332;2024-01-16T08:26:24;99604.50;;;-0.02;100.00
77590;BME280;66746;51.328;12.332;2024-01-16T08:28:51;99594.69;;;0.02;100.00
77590;BME280;66746;51.328;12.332;2024-01-16T08:31:18;99593.81;;;0.03;100.00
77590;BME280;66746;51.328;12.332;2024-01-16T08:33:44;99599.97;;;0.08;100.00
77590;BME280;66746;51.328;12.332;2024-01-16T08:36:14;99598.19;;;0.13;100.00
77590;BME280;66746;51.328;12.332;2024-01-16T08:38:42;99598.16;;;0.18;100.00
77590;BME280;66746;51.328;12.332;2024-01-16T08:41:10;99593.63;;;0.27;100.00
77590;BME280;66746;51.328;12.332;2024-01-16T08:43:36;99601.56;;;0.30;100.00
77590;BME280;66746;51.328;12.332;2024-01-16T08:46:03;99601.47;;;0.39;100.00
77590;BME280;66746;51.328;12.332;2024-01-16T08:48:29;99596.97;;;0.47;100.00
77590;BME280;66746;51.328;12.332;2024-01-16T08:50:56;99603.09;;;0.55;100.00
77590;BME280;66746;51.328;12.332;2024-01-16T08:53:23;99605.66;;;0.67;100.00
77590;BME280;66746;51.328;12.332;2024-01-16T08:55:50;99603.00;;;0.66;100.00
77590;BME280;66746;51.328;12.332;2024-01-16T08:58:18;99596.78;;;0.65;99.80
77590;BME280;66746;51.328;12.332;2024-01-16T09:00:44;99598.56;;;0.66;99.78
77590;BME280;66746;51.328;12.332;2024-01-16T09:03:11;99601.19;;;0.69;99.78
77590;BME280;66746;51.328;12.332;2024-01-16T09:05:38;99604.69;;;0.74;98.88
77590;BME280;66746;51.328;12.332;2024-01-16T09:08:05;99602.81;;;0.82;97.47
77590;BME280;66746;51.328;12.332;2024-01-16T09:10:33;99602.63;;;1.01;98.99
77590;BME280;66746;51.328;12.332;2024-01-16T09:12:59;99609.69;;;1.05;98.02
77590;BME280;66746;51.328;12.332;2024-01-16T09:15:27;99615.03;;;1.05;98.00
77590;BME280;66746;51.328;12.332;2024-01-16T09:17:54;99616.88;;;1.00;96.89
77590;BME280;66746;51.328;12.332;2024-01-16T09:20:20;99623.84;;;1.13;96.96
77590;BME280;66746;51.328;12.332;2024-01-16T09:22:47;99621.13;;;1.14;95.39
77590;BME280;66746;51.328;12.332;2024-01-16T09:25:14;99624.66;;;1.19;96.21
77590;BME280;66746;51.328;12.332;2024-01-16T09:27:40;99623.69;;;1.25;95.90
77590;BME280;66746;51.328;12.332;2024-01-16T09:30:08;99628.97;;;1.31;95.90
77590;BME280;66746;51.328;12.332;2024-01-16T09:32:36;99637.84;;;1.33;94.48
77590;BME280;66746;51.328;12.332;2024-01-16T09:35:03;99632.53;;;1.30;94.34
77590;BME280;66746;51.328;12.332;2024-01-16T09:37:29;99642.22;;;1.38;93.54
77590;BME280;66746;51.328;12.332;2024-01-16T09:39:56;99632.38;;;1.42;92.52
77590;BME280;66746;51.328;12.332;2024-01-16T09:42:23;99634.31;;;1.31;91.94
77590;BME280;66746;51.328;12.332;2024-01-16T09:44:50;99638.81;;;1.26;92.67
77590;BME280;66746;51.328;12.332;2024-01-16T09:47:18;99635.19;;;1.30;92.70
77590;BME280;66746;51.328;12.332;2024-01-16T09:49:47;99640.47;;;1.36;93.86
77590;BME280;66746;51.328;12.332;2024-01-16T09:52:13;99629.00;;;1.26;93.76
77590;BME280;66746;51.328;12.332;2024-01-16T09:54:39;99629.94;;;1.25;92.97
77590;BME280;66746;51.328;12.332;2024-01-16T09:57:07;99644.16;;;1.27;92.10
77590;BME280;66746;51.328;12.332;2024-01-16T09:59:36;99644.16;;;1.24;92.63
77590;BME280;66746;51.328;12.332;2024-01-16T10:02:03;99639.72;;;1.25;93.10
77590;BME280;66746;51.328;12.332;2024-01-16T10:04:30;99652.06;;;1.32;93.18
77590;BME280;66746;51.328;12.332;2024-01-16T10:06:59;99641.44;;;1.29;92.72
77590;BME280;66746;51.328;12.332;2024-01-16T10:09:27;99648.53;;;1.33;93.42
77590;BME280;66746;51.328;12.332;2024-01-16T10:11:54;99641.41;;;1.32;92.83
77590;BME280;66746;51.328;12.332;2024-01-16T10:14:21;99645.00;;;1.31;92.43
77590;BME280;66746;51.328;12.332;2024-01-16T10:17:00;99643.97;;;1.41;93.29
77590;BME280;66746;51.328;12.332;2024-01-16T10:19:30;99640.22;;;1.54;92.94
77590;BME280;66746;51.328;12.332;2024-01-16T10:22:19;99644.72;;;1.49;91.06
77590;BME280;66746;51.328;12.332;2024-01-16T10:24:46;99630.34;;;1.60;91.95
77590;BME280;66746;51.328;12.332;2024-01-16T10:27:15;99649.84;;;1.67;91.86
77590;BME280;66746;51.328;12.332;2024-01-16T10:29:54;99647.38;;;1.52;91.21
77590;BME280;66746;51.328;12.332;2024-01-16T10:32:31;99648.19;;;1.58;92.89
77590;BME280;66746;51.328;12.332;2024-01-16T10:35:03;99656.28;;;1.51;90.61
77590;BME280;66746;51.328;12.332;2024-01-16T10:37:40;99662.34;;;1.65;92.55
77590;BME280;66746;51.328;12.332;2024-01-16T10:40:07;99656.94;;;1.69;91.66
77590;BME280;66746;51.328;12.332;2024-01-16T10:42:34;99662.31;;;1.68;90.53
77590;BME280;66746;51.328;12.332;2024-01-16T10:45:01;99660.81;;;1.46;90.70
77590;BME280;66746;51.328;12.332;2024-01-16T10:47:27;99660.78;;;1.47;91.18
77590;BME280;66746;51.328;12.332;2024-01-16T10:49:56;99654.69;;;1.36;91.51
77590;BME280;66746;51.328;12.332;2024-01-16T10:52:25;99659.16;;;1.36;91.61
77590;BME280;66746;51.328;12.332;2024-01-16T10:54:56;99652.06;;;1.35;92.53
77590;BME280;66746;51.328;12.332;2024-01-16T10:57:24;99649.31;;;1.41;92.37
77590;BME280;66746;51.328;12.332;2024-01-16T10:59:59;99645.72;;;1.45;91.37
77590;BME280;66746;51.328;12.332;2024-01-16T11:02:33;99649.16;;;1.51;91.34
77590;BME280;66746;51.328;12.332;2024-01-16T11:05:01;99657.97;;;1.59;91.36
77590;BME280;66746;51.328;12.332;2024-01-16T11:07:30;99657.00;;;1.65;90.55
77590;BME280;66746;51.328;12.332;2024-01-16T11:09:59;99651.63;;;1.68;90.06
77590;BME280;66746;51.328;12.332;2024-01-16T11:12:26;99648.94;;;1.66;90.25
77590;BME280;66746;51.328;12.332;2024-01-16T11:14:53;99655.00;;;1.82;89.38
77590;BME280;66746;51.328;12.332;2024-01-16T11:17:20;99640.94;;;1.66;90.07
77590;BME280;66746;51.328;12.332;2024-01-16T11:19:47;99650.59;;;1.76;90.03
77590;BME280;66746;51.328;12.332;2024-01-16T11:22:36;99649.97;;;1.58;90.15
77590;BME280;66746;51.328;12.332;2024-01-16T11:25:08;99652.66;;;1.58;89.90
77590;BME280;66746;51.328;12.332;2024-01-16T11:27:38;99651.72;;;1.60;89.81
77590;BME280;66746;51.328;12.332;2024-01-16T11:30:06;99642.91;;;1.54;89.93
77590;BME280;66746;51.328;12.332;2024-01-16T11:32:34;99651.78;;;1.56;90.53
77590;BME280;66746;51.328;12.332;2024-01-16T11:35:04;99653.47;;;1.61;89.90
77590;BME280;66746;51.328;12.332;2024-01-16T11:37:33;99653.53;;;1.57;89.79
77590;BME280;66746;51.328;12.332;2024-01-16T11:40:24;99658.03;;;1.56;90.53
77590;BME280;66746;51.328;12.332;2024-01-16T11:42:51;99654.47;;;1.53;89.47
77590;BME280;66746;51.328;12.332;2024-01-16T11:45:50;99653.66;;;1.48;89.49
77590;BME280;66746;51.328;12.332;2024-01-16T11:48:17;99647.47;;;1.46;91.02
77590;BME280;66746;51.328;12.332;2024-01-16T11:50:44;99651.84;;;1.50;90.47
77590;BME280;66746;51.328;12.332;2024-01-16T11:53:33;99654.56;;;1.48;90.78
77590;BME280;66746;51.328;12.332;2024-01-16T11:56:15;99653.78;;;1.39;89.68
77590;BME280;66746;51.328;12.332;2024-01-16T11:59:17;99656.38;;;1.43;90.67
77590;BME280;66746;51.328;12.332;2024-01-16T12:01:50;99655.53;;;1.43;90.03
77590;BME280;66746;51.328;12.332;2024-01-16T12:04:19;99647.50;;;1.43;90.85
77590;BME280;66746;51.328;12.332;2024-01-16T12:06:56;99655.53;;;1.40;90.45
77590;BME280;66746;51.328;12.332;2024-01-16T12:09:25;99644.94;;;1.34;90.18
77590;BME280;66746;51.328;12.332;2024-01-16T12:11:57;99634.25;;;1.34;91.67
77590;BME280;66746;51.328;12.332;2024-01-16T12:14:24;99639.44;;;1.46;92.14
77590;BME280;66746;51.328;12.332;2024-01-16T12:16:51;99636.75;;;1.47;91.42
77590;BME280;66746;51.328;12.332;2024-01-16T12:19:18;99632.31;;;1.46;91.48
77590;BME280;66746;51.328;12.332;2024-01-16T12:21:45;99636.75;;;1.47;90.78
77590;BME280;66746;51.328;12.332;2024-01-16T12:24:12;99627.88;;;1.47;91.73
77590;BME280;66746;51.328;12.332;2024-01-16T12:26:44;99624.34;;;1.45;90.62
77590;BME280;66746;51.328;12.332;2024-01-16T12:29:12;99632.34;;;1.45;90.65
77590;BME280;66746;51.328;12.332;2024-01-16T12:31:38;99627.00;;;1.45;90.60
77590;BME280;66746;51.328;12.332;2024-01-16T12:34:05;99616.28;;;1.48;89.88
77590;BME280;66746;51.328;12.332;2024-01-16T12:36:32;99603.84;;;1.47;89.80
77590;BME280;66746;51.328;12.332;2024-01-16T12:39:01;99601.88;;;1.58;91.60
77590;BME280;66746;51.328;12.332;2024-01-16T12:41:31;99610.72;;;1.63;90.29
77590;BME280;66746;51.328;12.332;2024-01-16T12:44:08;99603.53;;;1.68;91.37
77590;BME280;66746;51.328;12.332;2024-01-16T12:46:44;99601.75;;;1.67;89.71
77590;BME280;66746;51.328;12.332;2024-01-16T12:49:11;99600.78;;;1.71;89.43
77590;BME280;66746;51.328;12.332;2024-01-16T12:51:38;99592.66;;;1.80;89.88
77590;BME280;66746;51.328;12.332;2024-01-16T12:54:12;99590.91;;;1.77;88.60
77590;BME280;66746;51.328;12.332;2024-01-16T12:56:39;99595.34;;;1.78;88.08